Aktualne dane pomiarowe

Uwaga, wersja testowa! Automatyczne pobieranie danych za pomocą narzędzi lub skryptów to umożliwiających jest zabronione.

Dane meteo z obszaru Polski uzyskane na podstawie depesz SYNOP pobieranych co godzinę z NWS. Najedź myszką na symbol przedstawiony w tabeli, aby uzyskać informacje co do jego znaczenia. Prosimy pamiętać, że to testowa wersja strony, która jeszcze nie jest ukończona. Stworzono również jest krótki FAQ dotyczący korzystania z tej podstrony Anomalie temperatury w chwili obecnej odniesione są do okresu referencyjnego 1951-2016. Okres ten będzie później zmieniony na 1981-2010. Kliknij ikonę aby pobrać plik CSV. Kliknij ikonę aby wygenerować mapę synoptyczną dla danego terminu.

Wybierz Datę:    

        

Łódź (12465)

Dane terminowe dla wybranej stacji. Kliknij datę, aby otrzymać dane z tego terminu dla wszystkich stacji.

TemperaturaZachmurzenieWiatrCiśnienieOpadyPogoda
 Data t td wb tx tn tg rh  Nt Nl Cl Cm Ch ws wd g1 g2 wx mslp ppp ch 24h 12h t ww ww w1 w2  
2019-07-04 23:00:00 10.1 3.8 6.6--- 6520.0wx-wx0----1017.0 995.0 -1.1---------
2019-07-04 22:00:00 10.1 3.6 6.5--- 6420.0wx-wx1wx--11017.3 995.3 -1.0---------
2019-07-04 21:00:00 11.3 3.6 7.1--- 5920.0wx-wx1wx--11017.5 995.6 -0.9---------
2019-07-04 20:00:00 13.3 3.4 8.1--- 5120.0wx-wx1wx--11017.9 996.1 -0.7---------
2019-07-04 19:00:00 17.1 1.9 9.4--- 3620.0wx-wx2wx--21017.8 996.3 -0.7---------
2019-07-04 18:00:00 20.3 0.8 10.6 22.5 14.2- 2720.0wx-wx5wx-1351017.7 996.5 -0.9- 0.012------
2019-07-04 17:00:00 21.1 0.9 11.0--- 2620.0wx-wx5wx--51018.0 996.8 -1.1---------
2019-07-04 16:00:00 21.3 0.5 10.9--- 2520.0wxwxwxwx7wx---1018.2 997.0 -1.3---------
2019-07-04 15:00:00 21.3 1.6 11.3--- 2720.0wxwxwxwx7wx-1371018.6 997.4 -1.4---------
2019-07-04 14:00:00 20.9 1.3 11.0--- 2720.0wxwxwxwx8wx131381019.1 997.9 -1.3---------
2019-07-04 13:00:00 20.9 2.3 11.4--- 2920.0wxwxwxwx7wx-1271019.5 998.3 -1.2---------
2019-07-04 12:00:00 20.4 2.8 11.3--- 3120.0wxwxwx8wx---1020.1 998.8 -0.7---------
2019-07-04 11:00:00 20.0 2.3 11.0--- 3120.0wxwxwx8wx--81020.5 999.2 -0.3---------
2019-07-04 10:00:00 18.7 2.9 10.6--- 3520.0wxwxwx7wx-1271020.9 999.5 -0.3---------
2019-07-04 09:00:00 18.8 4.2 11.1--- 3820.0wxwxwx8wx-1081020.9 999.5 -0.3---------
2019-07-04 08:00:00 18.7 4.5 11.1--- 3920.0wxwxwx6wx-1061020.9 999.5 -0.2---------
2019-07-04 07:00:00 16.8 5.7 10.7--- 4820.0wxwxwx4wx---1021.4 999.8 0.2---------
2019-07-04 06:00:00 14.2 6.3 9.7 18.5 5.4 3 5920.0wxwxwxwx3wx--31021.6 999.8 0.3- 0.012----- 9.6
2019-07-04 05:00:00 11.3 6.4 8.4--- 7220.0wx-wx2wx--21021.7 999.7 0.1---------
2019-07-04 04:00:00 8.5 5.8 6.8--- 8320.0wx-wx1wx--11021.8 999.6 0.2---------
2019-07-04 03:00:00 5.8 4.3 4.8--- 9020.0wx-wx0---01021.9 999.5 0.2---------
2019-07-04 02:00:00 6.0 4.2 4.8--- 8820.0wx-wx0---01022.0 999.6 0.3---------
2019-07-04 01:00:00 6.9 4.6 5.4--- 8520.0wx-wx0---01021.7 999.4 0.0---------
2019-07-04 00:00:00 8.3 4.7 6.1--- 7820.0wx-wx1wx--11021.5 999.3 0.0- 0.06------
2019-07-03 23:00:00 9.9 5.5 7.3--- 7420.0wx-wx1wx--11021.4 999.3 0.3---------
2019-07-03 22:00:00 11.8 6.5 8.6--- 7020.0wx-wx1wx--11021.3 999.4 1.1---------
2019-07-03 21:00:00 15.4 4.7 9.6--- 4920.0wx-wx1wx--11021.0 999.3 1.1---------
2019-07-03 20:00:00 16.5 2.8 9.5--- 4020.0wx-wx2wx--21020.6 999.0 0.8---------
2019-07-03 19:00:00 17.4 2.2 9.7--- 3620.0wx-wx2wx--21019.8 998.3 0.2---------
2019-07-03 18:00:00 18.5 1.5 10.0 21.3 14.6- 3220.0wxwxwx3wx-1231019.6 998.2 0.1- 0.012------
2019-07-03 17:00:00 19.3 1.7 10.4--- 3120.0wxwxwx5wx-1251019.5 998.2 -0.1---------
2019-07-03 16:00:00 20.2 0.7 10.5--- 2720.0wxwxwx6wx111261019.4 998.1 -0.7---------
2019-07-03 15:00:00 20.3 0.8 10.6--- 2720.0wxwxwx8wx-1281019.4 998.1 -0.6---------
2019-07-03 14:00:00 20.7 1.6 11.0--- 2820.0wxwxwx7wx--71019.5 998.3 -0.2---------
2019-07-03 13:00:00 19.5 2.4 10.8--- 3220.0wxwxwx6wx-1161020.1 998.8 0.6---------
2019-07-03 12:00:00 20.3 2.2 11.1--- 3020.0wxwxwx7wx---1020.0 998.7 0.4---------
2019-07-03 11:00:00 18.3 2.2 10.1--- 3420.0wxwxwx7wx--71019.9 998.5 0.0---------
2019-07-03 10:00:00 18.4 2.6 10.3--- 3520.0wxwxwx6wx-1361019.6 998.2 0.0---------
2019-07-03 09:00:00 17.2 3.1 9.9--- 3920.0wxwxwx7wx---1019.8 998.3 0.3---------
2019-07-03 08:00:00 16.9 2.8 9.7--- 392.0wxwxwx7wx-1271020.0 998.5 0.8---------
2019-07-03 07:00:00 15.4 4.1 9.4--- 4720.0wxwxwx7wx--71019.8 998.2 0.7---------
2019-07-03 06:00:00 14.7 5.7 9.7 21.3 7.4 5 5520.0wxwxwx5wx--51019.7 998.0 0.4- 0.012----- 12.1
2019-07-03 05:00:00 13.0 6.8 9.3--- 6620.0wxwxwx3wx--31019.5 997.7 0.6---------
2019-07-03 04:00:00 10.6 7.1 8.4--- 7920.0wxwxwxwx1wx--11019.5 997.5 0.5---------
2019-07-03 03:00:00 7.5 5.3 6.1--- 8620.0wx-wxwx1wx--11019.8 997.6 0.8---------
2019-07-03 02:00:00 8.9 5.6 6.9--- 8020.0wx-wxwx1wx--11019.2 997.1 0.5---------
2019-07-03 01:00:00 12.8 5.9 8.8--- 6320.0wx-wx2wx--21018.8 997.0 0.5---------
2019-07-03 00:00:00 12.6 6.0 8.8--- 6420.0wxwxwx2wx--21018.6 996.8 0.5- 0.06------
1.9 ms

 

Print Friendly, PDF & Email